Aérodrome :
LOGIN :

S'inscrire | Disclaimer

   EN    FR    IT 

 










Légende :    VFR   VFR Marginal   IFR   IFR Intensif   IFR Très Intensif
Visi : 
Plafond : 
>= 8 km
>= 3000ft
5 à 8 km
1000 à 3000 ft
1500m à 5 km
500 à 1000 ft
800 à 1500m
200 à 500 ft
< 800m
< 200 ft
Symboles :   Orages  Brouillard  Fortes neiges  Fortes précipitations  Vent > 20 kt
SIGMETs :   Divers  Orages  Givrage  Turbulence  Onde Orograph.  Cendres Volcan.







- Altitude de l'aérodrome : 202 ft
- Code IATA : LGW
- Voir les cartes d'approche


EGKK - London Gatwick

DERNIER METAR :
  • 261720Z 01007KT 330V030 9999 FEW030TCU 08/01 Q1018

METARs EXPIRÉS :
  • 261650Z 01009KT 340V080 9999 FEW030TCU 08/00 Q1018
  • 261620Z 35012KT 310V050 9999 SCT028CB 08/01 Q1018
  • 261550Z VRB03KT 9999 SCT030 09/02 Q1018
  • 261520Z 35008KT 9999 FEW024CB SCT031 08/03 Q1018
  • 261450Z VRB08KT 9999 SCT024CB SCT032 08/03 Q1018

TAF TAF EGKK
Valide du 26 à 18h jusqu'au 28 à 00h UTC


261657Z 2618/2724 34009KT 9999 SCT040
TEMPO 2618/2620 02018G28KT 7000 SHRA
PROB40
TEMPO 2618/2619 4000 +SHRA SHGS
PROB30 2700/2707 3000 BR MIFG
PROB30
TEMPO 2716/2724 9000 -RA BKN014
Pas de NOTAMs connus pour ce terrain.



MET'MAP, la Météo Aéronautique d'un coup d'oeil ! - Copyright ORBIFLY Décembre 2007 - Disclaimer

ORBIFLY MET'MAP TEAM :

Programmation & Développement : Alexandra Zaïnal
Conception & Développement : Baudouin d'Aumeries
Co-Programmation & Développement : Marc-Olivier Méhu
Soutien technique & logistique : Manuel Goepfert

Contact : metmap@orbifly.com




SOURCES & CREDITS :

   NOAA